Atlantic City, NJ

1:30 PM EDT on July 01, 2015 (GMT -0400)
APRSWXNET | | Change Station
CLOSE
Current Station
Personal Weather Station
Location: Absecon, NJ
Elevation: 9 ft
Nearby Weather Stations

Elev 9 ft 39.40 °N, 74.47 °W | Updated 31 minutes ago

Clear
Clear
80 °F
Feels Like 83 °F
N
11
Wind Variable Wind from WSW
Gusts 15.0 mph

Today
High -- | Low -- °F
--% Chance of Precip.
Yesterday
High -- | Low -- °F
Precip. -- in
5:34 AM 8:28 PM
Full, 100% visible
Pressure 29.84 in
Visibility 10.0 miles
Clouds Clear
Heat Index 83 °F
Dew Point 69 °F
Humidity 69%
Rainfall in
Snow Depth Not available.
UV 12 out of 12
Pollen 2.60 out of 12
Air Quality Not available.
Flu Activity Not available.
METAR KACY 011654Z 24011G16KT 10SM CLR 28/17 A2984 RMK AO2 SLP103 T02780172

More Conditions Fewer Conditions

Pressure 29.84 in
Visibility 10.0 miles
Clouds Clear
Heat Index 83 °F
Dew Point 69 °F
Humidity 69%
Rainfall in
Snow Depth Not available.
UV 12 out of 12
Pollen 2.60 out of 12
Air Quality Not available.
Flu Activity Not available.
METAR KACY 011654Z 24011G16KT 10SM CLR 28/17 A2984 RMK AO2 SLP103 T02780172

More Conditions Fewer Conditions

10-Day Weather Forecast

×

Almanac

Astronomy

Jul. 01, 2015 Rise Set
Actual Time
Civil Twilight
Nautical Twilight
Astronomical Twilight
Moon
Length of Visible Light
Length of Day
Tomorrow will be .
, % of the Moon is Illuminated

Today's Extremes

State Highs State Lows

Community

WunderPhotos

Upload Photos

1,834,216 photos uploaded!

WunderBlogs® & News

Nearby

Air Quality

  Air Quality AQ Index Pollutant
Not available.

Snow Depth

Station Depth Elevation

Earthquake Activity

City Distance Mag. Time & Date
Minimum magnitude displayed is 2.5.

Coastal Water Temperatures

Place Temperature

Stations

Nearby Weather Stations

Station Location Temp. Windchill Dew Point Humidity Wind Precip. Elev Updated Type